createdAt,value
2023-04-18T00:02:19.217Z,1.50
2023-04-18T00:04:47.941Z,1.33
2023-04-18T00:07:35.340Z,1.30
2023-04-18T00:10:07.230Z,1.80
2023-04-18T00:12:36.528Z,1.67
2023-04-18T00:15:05.926Z,1.77
2023-04-18T00:17:38.677Z,1.70
2023-04-18T00:20:10.488Z,1.60
2023-04-18T00:22:42.963Z,1.40
2023-04-18T00:25:12.045Z,1.30
2023-04-18T00:27:43.156Z,2.05
2023-04-18T00:30:14.135Z,1.92
2023-04-18T00:32:43.921Z,2.10
2023-04-18T00:35:12.176Z,1.75
2023-04-18T00:37:40.514Z,2.28
2023-04-18T00:40:10.877Z,1.90
2023-04-18T00:42:40.388Z,2.15
2023-04-18T00:45:09.631Z,1.40
2023-04-18T00:47:38.572Z,1.70
2023-04-18T00:50:12.696Z,1.90
2023-04-18T00:52:42.261Z,1.80
2023-04-18T00:55:14.026Z,1.65
2023-04-18T00:57:43.273Z,1.65
2023-04-18T01:00:12.501Z,1.90
2023-04-18T01:02:42.082Z,2.42
2023-04-18T01:05:12.021Z,2.22
2023-04-18T01:07:41.927Z,2.67
2023-04-18T01:10:11.824Z,1.25
2023-04-18T01:12:41.814Z,2.38
2023-04-18T01:15:10.426Z,1.50
2023-04-18T01:17:43.632Z,2.10
2023-04-18T01:20:14.353Z,2.20
2023-04-18T01:24:11.159Z,1.95
2023-04-18T01:26:44.879Z,2.67
2023-04-18T01:29:13.238Z,2.10
2023-04-18T01:31:42.317Z,2.10
2023-04-18T01:34:10.822Z,1.65
2023-04-18T01:36:40.872Z,1.50
2023-04-18T01:39:14.838Z,2.50
2023-04-18T01:41:45.355Z,2.80
2023-04-18T01:44:13.801Z,4.03
2023-04-18T01:46:42.116Z,2.35
2023-04-18T01:49:12.831Z,1.70
2023-04-18T01:51:44.066Z,2.22
2023-04-18T01:54:12.259Z,1.83
2023-04-18T01:56:42.027Z,2.08
2023-04-18T01:59:10.249Z,2.53
2023-04-18T02:01:39.971Z,2.63
2023-04-18T02:04:08.177Z,2.70
2023-04-18T02:06:39.948Z,2.50
2023-04-18T02:09:11.767Z,2.75
2023-04-18T02:11:41.212Z,3.15
2023-04-18T02:14:09.699Z,2.65
2023-04-18T02:16:38.880Z,2.28
2023-04-18T02:19:07.276Z,2.70
2023-04-18T02:21:39.431Z,3.30
2023-04-18T02:24:09.505Z,2.00
2023-04-18T02:26:37.556Z,2.15
2023-04-18T02:29:07.132Z,2.63
2023-04-18T02:31:38.865Z,2.13
2023-04-18T02:34:07.835Z,2.22
2023-04-18T02:36:36.232Z,2.45
2023-04-18T02:39:04.487Z,1.80
2023-04-18T02:41:37.706Z,2.28
2023-04-18T02:44:07.567Z,2.97
2023-04-18T02:46:39.110Z,2.53
2023-04-18T02:49:12.143Z,2.38
2023-04-18T02:51:40.573Z,2.88
2023-04-18T02:54:08.870Z,2.55
2023-04-18T02:56:54.495Z,2.85
2023-04-18T02:59:32.707Z,2.10
2023-04-18T03:02:16.496Z,1.88
2023-04-18T03:04:51.485Z,2.15
2023-04-18T03:07:20.264Z,2.78
2023-04-18T03:09:52.657Z,2.15
2023-04-18T03:12:26.977Z,2.63
2023-04-18T03:14:56.415Z,2.53
2023-04-18T03:17:29.350Z,2.58
2023-04-18T03:19:57.404Z,2.25
2023-04-18T03:22:25.903Z,2.30
2023-04-18T03:25:00.058Z,1.67
2023-04-18T03:27:51.217Z,2.10
2023-04-18T03:30:22.909Z,2.53
2023-04-18T03:32:56.126Z,2.25
2023-04-18T03:35:27.049Z,2.28
2023-04-18T03:37:56.093Z,2.22
2023-04-18T03:40:36.010Z,2.15
2023-04-18T03:43:10.992Z,2.58
2023-04-18T03:45:41.319Z,2.53
2023-04-18T03:48:09.442Z,2.22
2023-04-18T03:50:42.903Z,2.35
2023-04-18T03:53:12.166Z,2.30
2023-04-18T03:55:40.591Z,2.55
2023-04-18T03:58:10.575Z,2.55
2023-04-18T04:00:41.647Z,2.30
2023-04-18T04:03:12.539Z,3.03
2023-04-18T04:05:41.368Z,2.15
2023-04-18T04:08:09.782Z,3.67
2023-04-18T04:10:37.873Z,1.77
2023-04-18T04:13:08.070Z,2.10
2023-04-18T04:15:39.647Z,2.95
2023-04-18T04:18:12.090Z,2.03
2023-04-18T04:20:43.461Z,2.17
2023-04-18T04:23:15.285Z,2.90
2023-04-18T04:25:46.926Z,2.05
2023-04-18T04:28:33.196Z,2.72
2023-04-18T04:31:06.955Z,2.58
2023-04-18T04:33:39.195Z,2.25
2023-04-18T04:36:17.329Z,2.35
2023-04-18T04:38:48.277Z,2.80
2023-04-18T04:41:22.587Z,2.95
2023-04-18T04:43:52.335Z,2.45
2023-04-18T04:46:25.293Z,2.78
2023-04-18T04:48:58.579Z,3.30
2023-04-18T04:51:33.328Z,2.35
2023-04-18T04:54:01.774Z,3.00
2023-04-18T04:56:30.368Z,2.55
2023-04-18T04:59:01.916Z,2.42
2023-04-18T05:01:48.387Z,3.03
2023-04-18T05:04:18.681Z,2.92
2023-04-18T05:06:49.504Z,2.83
2023-04-18T05:09:17.680Z,2.72
2023-04-18T05:11:45.918Z,2.95
2023-04-18T05:14:14.422Z,2.83
2023-04-18T05:16:42.662Z,2.80
2023-04-18T05:19:11.001Z,3.28
2023-04-18T05:21:42.674Z,3.30
2023-04-18T05:24:12.272Z,3.40
2023-04-18T05:26:40.914Z,2.10
2023-04-18T05:29:08.904Z,2.65
2023-04-18T05:31:37.423Z,3.15
2023-04-18T05:34:05.494Z,2.83
2023-04-18T05:36:33.821Z,2.63
2023-04-18T05:39:03.319Z,2.67
2023-04-18T05:41:31.802Z,3.13
2023-04-18T05:44:16.882Z,3.08
2023-04-18T05:46:45.481Z,3.55
2023-04-18T05:49:13.832Z,3.63
2023-04-18T05:51:42.042Z,2.92
2023-04-18T05:54:11.835Z,2.90
2023-04-18T05:56:42.347Z,3.92
2023-04-18T05:59:10.767Z,2.90
2023-04-18T06:01:41.053Z,3.88
2023-04-18T06:04:11.911Z,3.63
2023-04-18T06:06:42.978Z,3.35
2023-04-18T06:09:12.707Z,3.47
2023-04-18T06:11:40.771Z,3.17
2023-04-18T06:14:09.023Z,3.85
2023-04-18T06:16:39.776Z,3.83
2023-04-18T06:19:07.961Z,3.30
2023-04-18T06:25:04.427Z,3.65
2023-04-18T06:27:32.623Z,3.13
2023-04-18T06:30:03.147Z,3.28
2023-04-18T06:32:32.344Z,3.45
2023-04-18T06:35:00.441Z,3.08
2023-04-18T06:37:28.946Z,3.67
2023-04-18T06:39:57.114Z,3.97
2023-04-18T06:42:29.034Z,3.60
2023-04-18T06:44:57.722Z,3.30
2023-04-18T06:47:25.996Z,3.50
2023-04-18T06:49:54.155Z,3.50
2023-04-18T06:52:22.169Z,3.50
2023-04-18T06:54:50.152Z,3.58
2023-04-18T06:57:18.271Z,3.70
2023-04-18T06:59:47.713Z,2.45
2023-04-18T07:02:15.940Z,3.25
2023-04-18T07:04:46.622Z,3.03
2023-04-18T07:07:14.939Z,2.90
2023-04-18T07:09:43.310Z,3.67
2023-04-18T07:12:11.530Z,3.00
2023-04-18T07:14:40.446Z,3.40
2023-04-18T07:17:10.006Z,3.47
2023-04-18T07:19:38.206Z,2.63
2023-04-18T07:22:06.291Z,2.65
2023-04-18T07:24:34.583Z,3.13
2023-04-18T07:27:03.553Z,3.10
2023-04-18T07:29:34.238Z,2.50
2023-04-18T07:32:16.127Z,2.50
2023-04-18T07:34:45.736Z,2.40
2023-04-18T07:37:15.247Z,2.80
2023-04-18T07:39:43.392Z,2.60
2023-04-18T07:42:11.752Z,3.40
2023-04-18T07:44:39.926Z,2.83
2023-04-18T07:47:10.455Z,2.78
2023-04-18T07:49:42.745Z,3.20
2023-04-18T07:52:13.033Z,2.70
2023-04-18T07:54:41.105Z,3.25
2023-04-18T07:57:09.379Z,2.70
2023-04-18T07:59:37.711Z,3.17
2023-04-18T08:02:06.419Z,2.55
2023-04-18T08:04:37.119Z,2.70
2023-04-18T08:07:06.766Z,2.35
2023-04-18T08:09:34.813Z,2.75
2023-04-18T08:12:02.950Z,2.60
2023-04-18T08:14:31.077Z,2.78
2023-04-18T08:16:59.138Z,2.47
2023-04-18T08:19:27.399Z,2.72
2023-04-18T08:21:55.592Z,2.50
2023-04-18T08:24:25.172Z,2.20
2023-04-18T08:26:56.875Z,2.38
2023-04-18T08:29:24.940Z,2.80
2023-04-18T08:31:53.377Z,2.25
2023-04-18T08:34:22.052Z,2.63
2023-04-18T08:36:52.766Z,2.38
2023-04-18T08:39:25.248Z,2.40
2023-04-18T08:44:30.662Z,2.92
2023-04-18T08:47:03.143Z,2.65
2023-04-18T08:49:31.948Z,2.50
2023-04-18T08:52:02.363Z,2.92
2023-04-18T08:54:31.283Z,2.22
2023-04-18T08:57:06.848Z,2.75
2023-04-18T08:59:37.581Z,2.00
2023-04-18T09:02:09.066Z,2.40
2023-04-18T09:04:38.589Z,2.08
2023-04-18T09:07:08.691Z,2.22
2023-04-18T09:09:45.124Z,1.73
2023-04-18T09:12:18.212Z,3.42
2023-04-18T09:14:48.586Z,3.17
2023-04-18T09:17:31.660Z,2.60
2023-04-18T09:20:00.533Z,2.35
2023-04-18T09:22:46.260Z,2.58
2023-04-18T09:25:26.066Z,2.72
2023-04-18T09:27:57.265Z,2.67
2023-04-18T09:30:36.983Z,1.50
2023-04-18T09:33:07.534Z,2.10
2023-04-18T09:35:38.997Z,2.45
2023-04-18T09:38:09.867Z,2.80
2023-04-18T09:40:40.709Z,2.55
2023-04-18T09:43:21.350Z,2.17
2023-04-18T09:45:49.756Z,2.40
2023-04-18T09:48:21.345Z,2.08
2023-04-18T09:50:50.815Z,2.72
2023-04-18T09:53:21.046Z,2.42
2023-04-18T09:55:52.378Z,2.28
2023-04-18T09:58:23.266Z,2.00
2023-04-18T10:00:52.891Z,1.83
2023-04-18T10:03:30.895Z,1.95
2023-04-18T10:06:01.914Z,2.13
2023-04-18T10:08:30.478Z,2.05
2023-04-18T10:11:00.162Z,1.83
2023-04-18T10:13:33.257Z,2.27
2023-04-18T10:16:01.846Z,1.40
2023-04-18T10:18:30.154Z,1.50
2023-04-18T10:21:03.296Z,2.00
2023-04-18T10:23:39.215Z,1.80
2023-04-18T10:26:12.392Z,1.85
2023-04-18T10:28:58.633Z,2.15
2023-04-18T10:31:28.495Z,1.92
2023-04-18T10:39:03.115Z,1.45
2023-04-18T10:41:32.657Z,1.35
2023-04-18T10:44:29.460Z,1.38
2023-04-18T10:47:20.954Z,1.67
2023-04-18T10:50:01.239Z,1.58
2023-04-18T10:52:30.635Z,1.90
2023-04-18T10:55:16.962Z,1.58
2023-04-18T10:57:48.620Z,1.67
2023-04-18T11:00:21.517Z,1.35
2023-04-18T11:05:26.598Z,1.38
2023-04-18T11:07:55.314Z,1.48
2023-04-18T11:10:27.131Z,1.45
2023-04-18T11:12:56.596Z,1.67
2023-04-18T11:15:30.368Z,1.30
2023-04-18T11:18:00.755Z,1.48
2023-04-18T11:20:39.671Z,0.93
2023-04-18T11:26:04.622Z,1.10
2023-04-18T11:28:32.948Z,1.02
2023-04-18T11:31:03.008Z,1.00
2023-04-18T11:33:31.333Z,1.60
2023-04-18T11:35:59.884Z,1.08
2023-04-18T11:38:30.840Z,1.58
2023-04-18T11:40:59.050Z,1.20
2023-04-18T11:43:28.491Z,0.90
2023-04-18T11:46:00.130Z,1.08
2023-04-18T11:48:36.126Z,0.85
2023-04-18T11:51:04.272Z,1.08
2023-04-18T11:53:35.750Z,1.00
2023-04-18T11:56:04.064Z,1.20
2023-04-18T11:58:35.502Z,1.20
2023-04-18T12:01:17.348Z,1.30
2023-04-18T12:03:46.078Z,1.00
2023-04-18T12:06:14.486Z,0.80
2023-04-18T12:08:44.465Z,1.20
2023-04-18T12:11:21.357Z,1.52
2023-04-18T12:13:50.999Z,1.80
2023-04-18T12:16:21.890Z,2.58
2023-04-18T12:18:50.069Z,1.10
2023-04-18T12:21:18.208Z,0.90
2023-04-18T12:23:46.497Z,0.75
2023-04-18T12:26:16.660Z,0.70
2023-04-18T12:28:48.059Z,1.05
2023-04-18T12:31:17.570Z,0.68
2023-04-18T12:33:45.675Z,1.00
2023-04-18T12:36:16.141Z,1.00
2023-04-18T12:38:46.686Z,0.85
2023-04-18T12:41:14.753Z,1.00
2023-04-18T12:43:43.305Z,0.80
2023-04-18T12:46:11.333Z,0.88
2023-04-18T12:48:44.086Z,0.98
2023-04-18T12:51:12.549Z,1.05
2023-04-18T12:53:43.626Z,0.95
2023-04-18T12:56:11.688Z,1.30
2023-04-18T12:58:39.772Z,1.00
2023-04-18T13:01:08.057Z,1.23
2023-04-18T13:03:37.279Z,0.63
2023-04-18T13:06:08.048Z,1.10
2023-04-18T13:08:37.535Z,0.85
2023-04-18T13:11:05.989Z,1.02
2023-04-18T13:13:35.766Z,0.70
2023-04-18T13:16:06.970Z,1.05
2023-04-18T13:18:37.726Z,1.02
2023-04-18T13:21:07.673Z,0.80
2023-04-18T13:23:35.766Z,1.00
2023-04-18T13:26:03.893Z,0.80
2023-04-18T13:28:31.976Z,0.75
2023-04-18T13:31:00.046Z,0.90
2023-04-18T13:33:28.187Z,0.80
2023-04-18T13:35:59.358Z,0.93
2023-04-18T13:38:29.104Z,1.20
2023-04-18T13:41:08.963Z,0.60
2023-04-18T13:43:40.031Z,0.75
2023-04-18T13:46:08.682Z,0.85
2023-04-18T13:48:36.745Z,0.82
2023-04-18T13:51:05.737Z,0.65
2023-04-18T13:53:35.477Z,0.65
2023-04-18T13:56:03.554Z,0.90
2023-04-18T13:58:34.047Z,0.80
2023-04-18T14:01:02.789Z,0.73
2023-04-18T14:03:31.483Z,1.05
2023-04-18T14:05:59.666Z,0.80
2023-04-18T14:08:27.717Z,0.77
2023-04-18T14:10:59.578Z,0.63
2023-04-18T14:13:27.714Z,0.90
2023-04-18T14:15:55.825Z,0.90
2023-04-18T14:18:26.460Z,1.10
2023-04-18T14:20:54.858Z,0.77
2023-04-18T14:23:26.095Z,0.93
2023-04-18T14:25:54.367Z,0.60
2023-04-18T14:28:25.114Z,0.75
2023-04-18T14:30:55.531Z,0.77
2023-04-18T14:33:24.415Z,1.17
2023-04-18T14:35:52.479Z,1.83
2023-04-18T14:38:22.855Z,1.20
2023-04-18T14:40:51.472Z,0.88
2023-04-18T14:43:19.832Z,0.85
2023-04-18T14:45:49.420Z,1.00
2023-04-18T14:48:17.870Z,0.77
2023-04-18T14:50:48.079Z,0.65
2023-04-18T14:53:16.513Z,0.90
2023-04-18T14:55:46.071Z,1.00
2023-04-18T14:58:16.454Z,0.80
2023-04-18T15:00:44.807Z,0.98
2023-04-18T15:03:16.909Z,1.00
2023-04-18T15:05:49.250Z,0.70
2023-04-18T15:08:17.537Z,1.00
2023-04-18T15:10:50.524Z,0.68
2023-04-18T15:13:19.053Z,0.85
2023-04-18T15:15:52.691Z,1.00
2023-04-18T15:18:24.683Z,0.88
2023-04-18T15:20:53.744Z,1.05
2023-04-18T15:23:22.208Z,1.13
2023-04-18T15:25:50.301Z,1.13
2023-04-18T15:28:19.181Z,0.70
2023-04-18T15:30:47.538Z,1.00
2023-04-18T15:33:17.910Z,1.15
2023-04-18T15:35:50.374Z,0.98
2023-04-18T15:38:19.146Z,1.20
2023-04-18T15:40:49.667Z,1.00
2023-04-18T15:43:18.240Z,1.50
2023-04-18T15:45:48.942Z,0.88
2023-04-18T15:48:17.135Z,1.13
2023-04-18T15:50:52.152Z,0.90
2023-04-18T15:53:20.654Z,1.30
2023-04-18T15:55:48.710Z,1.27
2023-04-18T15:58:16.819Z,1.20
2023-04-18T16:00:44.934Z,0.80
2023-04-18T16:03:15.472Z,1.08
2023-04-18T16:05:47.615Z,0.70
2023-04-18T16:08:17.190Z,1.23
2023-04-18T16:10:45.353Z,0.98
2023-04-18T16:13:16.140Z,1.17
2023-04-18T16:15:48.021Z,0.90
2023-04-18T16:18:16.319Z,0.95
2023-04-18T16:20:44.491Z,1.10
2023-04-18T16:23:15.320Z,0.80
2023-04-18T16:27:06.376Z,1.05
2023-04-18T16:29:34.732Z,0.95
2023-04-18T16:32:03.000Z,1.20
2023-04-18T16:34:31.273Z,1.02
2023-04-18T16:36:59.460Z,1.15
2023-04-18T16:39:28.679Z,1.27
2023-04-18T16:41:57.557Z,1.02
2023-04-18T16:44:27.110Z,0.90
2023-04-18T16:46:55.275Z,0.90
2023-04-18T16:49:23.973Z,0.88
2023-04-18T16:51:52.958Z,1.27
2023-04-18T16:54:21.340Z,1.17
2023-04-18T16:56:49.490Z,0.93
2023-04-18T16:59:17.787Z,1.17
2023-04-18T17:01:47.352Z,1.48
2023-04-18T17:04:16.271Z,1.23
2023-04-18T17:06:44.909Z,1.27
2023-04-18T17:09:13.675Z,1.00
2023-04-18T17:11:42.380Z,1.40
2023-04-18T17:14:10.511Z,1.13
2023-04-18T17:16:40.147Z,1.10
2023-04-18T17:19:10.765Z,1.33
2023-04-18T17:21:39.434Z,0.93
2023-04-18T17:24:08.077Z,1.00
2023-04-18T17:26:37.743Z,1.15
2023-04-18T17:29:05.970Z,0.77
2023-04-18T17:31:34.857Z,0.93
2023-04-18T17:34:03.556Z,0.93
2023-04-18T17:36:33.341Z,0.82
2023-04-18T17:39:06.217Z,1.08
2023-04-18T17:41:38.030Z,0.82
2023-04-18T17:44:07.801Z,0.93
2023-04-18T17:46:36.210Z,0.40
2023-04-18T17:49:04.679Z,0.73
2023-04-18T17:51:34.479Z,1.33
2023-04-18T17:54:02.971Z,1.02
2023-04-18T17:56:31.392Z,1.20
2023-04-18T17:59:02.629Z,1.05
2023-04-18T18:01:31.649Z,0.70
2023-04-18T18:03:59.856Z,1.50
2023-04-18T18:06:28.586Z,0.93
2023-04-18T18:09:00.585Z,0.65
2023-04-18T18:11:29.095Z,1.00
2023-04-18T18:13:57.884Z,1.15
2023-04-18T18:16:26.434Z,1.10
2023-04-18T18:18:54.740Z,1.45
2023-04-18T18:21:22.990Z,1.40
2023-04-18T18:23:51.060Z,0.98
2023-04-18T18:26:20.880Z,1.50
2023-04-18T18:28:51.567Z,2.10
2023-04-18T18:31:23.022Z,1.30
2023-04-18T18:33:53.783Z,1.17
2023-04-18T18:36:22.095Z,0.90
2023-04-18T18:38:50.238Z,0.95
2023-04-18T18:41:22.593Z,1.10
2023-04-18T18:43:53.553Z,1.40
2023-04-18T18:46:21.714Z,1.63
2023-04-18T18:48:49.980Z,2.15
2023-04-18T18:51:19.993Z,1.75
2023-04-18T18:53:51.147Z,1.45
2023-04-18T18:56:20.825Z,1.25
2023-04-18T18:58:49.209Z,1.38
2023-04-18T19:01:17.330Z,1.13
2023-04-18T19:03:45.824Z,1.17
2023-04-18T19:06:14.994Z,1.30
2023-04-18T19:08:45.846Z,1.42
2023-04-18T19:11:18.282Z,1.65
2023-04-18T19:13:48.050Z,1.30
2023-04-18T19:16:16.421Z,0.82
2023-04-18T19:18:47.215Z,1.63
2023-04-18T19:21:20.327Z,1.55
2023-04-18T19:23:50.754Z,1.65
2023-04-18T19:26:21.416Z,1.52
2023-04-18T19:28:51.369Z,1.55
2023-04-18T19:31:20.022Z,2.15
2023-04-18T19:33:48.495Z,0.90
2023-04-18T19:36:16.795Z,1.35
2023-04-18T19:38:47.631Z,1.42
2023-04-18T19:41:15.944Z,1.52
2023-04-18T19:43:44.607Z,1.25
2023-04-18T19:46:14.265Z,1.35
2023-04-18T19:48:42.713Z,1.63
2023-04-18T19:51:10.965Z,1.35
2023-04-18T19:53:40.293Z,1.90
2023-04-18T19:56:10.855Z,1.58
2023-04-18T19:58:46.899Z,2.28
2023-04-18T20:01:17.514Z,1.85
2023-04-18T20:03:46.006Z,2.65
2023-04-18T20:06:20.276Z,1.65
2023-04-18T20:08:48.506Z,1.48
2023-04-18T20:11:18.013Z,1.70
2023-04-18T20:13:46.467Z,1.67
2023-04-18T20:16:16.975Z,1.55
2023-04-18T20:18:47.336Z,1.33
2023-04-18T20:21:16.319Z,2.35
2023-04-18T20:23:45.298Z,1.83
2023-04-18T20:26:13.743Z,1.70
2023-04-18T20:28:41.945Z,1.83
2023-04-18T20:31:12.742Z,1.90
2023-04-18T20:33:42.552Z,1.63
2023-04-18T20:36:11.380Z,2.45
2023-04-18T20:38:40.249Z,2.00
2023-04-18T20:41:10.726Z,1.55
2023-04-18T20:43:38.956Z,1.63
2023-04-18T20:46:07.790Z,1.90
2023-04-18T20:48:36.195Z,2.17
2023-04-18T20:51:06.102Z,1.65
2023-04-18T20:53:34.218Z,1.88
2023-04-18T20:56:04.960Z,1.95
2023-04-18T20:58:33.186Z,1.77
2023-04-18T21:01:01.604Z,1.90
2023-04-18T21:03:29.908Z,2.03
2023-04-18T21:05:58.547Z,1.75
2023-04-18T21:08:28.081Z,1.60
2023-04-18T21:10:56.564Z,2.70
2023-04-18T21:13:24.817Z,1.77
2023-04-18T21:15:53.435Z,2.05
2023-04-18T21:18:21.530Z,1.52
2023-04-18T21:20:50.268Z,1.70
2023-04-18T21:23:20.583Z,1.88
2023-04-18T21:28:06.268Z,1.58
2023-04-18T21:30:34.602Z,1.70
2023-04-18T21:33:02.849Z,1.75
2023-04-18T21:35:31.326Z,1.40
2023-04-18T21:38:01.818Z,3.17
2023-04-18T21:40:31.262Z,1.70
2023-04-18T21:42:59.815Z,2.17
2023-04-18T21:45:29.862Z,2.05
2023-04-18T21:47:58.211Z,1.90
2023-04-18T21:50:26.833Z,2.08
2023-04-18T21:52:55.264Z,2.25
2023-04-18T21:55:23.780Z,1.55
2023-04-18T21:57:52.215Z,1.95
2023-04-18T22:00:22.881Z,1.45
2023-04-18T22:02:52.915Z,1.60
2023-04-18T22:05:21.401Z,1.77
2023-04-18T22:07:58.195Z,1.42
2023-04-18T22:10:26.860Z,2.17
2023-04-18T22:12:56.217Z,1.75
2023-04-18T22:15:27.101Z,1.58
2023-04-18T22:17:59.231Z,2.20
2023-04-18T22:20:33.555Z,1.85
2023-04-18T22:23:03.223Z,2.17
2023-04-18T22:25:34.211Z,2.40
2023-04-18T23:16:08.206Z,1.92
2023-04-18T23:21:09.410Z,1.98
2023-04-18T23:23:37.907Z,1.83
2023-04-18T23:26:14.288Z,1.38
2023-04-18T23:28:42.776Z,1.90
2023-04-18T23:31:12.459Z,1.60
2023-04-18T23:33:40.910Z,1.60
2023-04-18T23:36:11.804Z,2.22
2023-04-18T23:38:42.413Z,1.70
2023-04-18T23:41:10.963Z,1.58
2023-04-18T23:43:41.610Z,1.42
2023-04-18T23:46:10.134Z,1.67
2023-04-18T23:48:42.240Z,1.33
2023-04-18T23:51:12.492Z,1.27
2023-04-18T23:53:40.632Z,1.75
2023-04-18T23:56:08.912Z,1.00
2023-04-18T23:58:37.510Z,2.25
